sensor_id;sensor_type;location;lat;lon;timestamp;temperature;humidity
11922;DHT22;6021;51.182;3.160;2022-08-03T00:02:16;19.30;99.90
11922;DHT22;6021;51.182;3.160;2022-08-03T00:04:44;19.30;99.90
11922;DHT22;6021;51.182;3.160;2022-08-03T00:07:12;19.30;99.90
11922;DHT22;6021;51.182;3.160;2022-08-03T00:09:41;19.20;99.90
11922;DHT22;6021;51.182;3.160;2022-08-03T00:12:09;19.20;99.90
11922;DHT22;6021;51.182;3.160;2022-08-03T00:14:38;19.30;99.90
11922;DHT22;6021;51.182;3.160;2022-08-03T00:17:06;19.20;99.90
11922;DHT22;6021;51.182;3.160;2022-08-03T00:19:34;19.20;99.90
11922;DHT22;6021;51.182;3.160;2022-08-03T00:22:03;19.20;99.90
11922;DHT22;6021;51.182;3.160;2022-08-03T00:24:31;19.10;99.90
11922;DHT22;6021;51.182;3.160;2022-08-03T00:27:01;19.10;99.90
11922;DHT22;6021;51.182;3.160;2022-08-03T00:29:29;19.10;99.90
11922;DHT22;6021;51.182;3.160;2022-08-03T00:31:58;19.00;99.90
11922;DHT22;6021;51.182;3.160;2022-08-03T00:34:26;18.90;99.90
11922;DHT22;6021;51.182;3.160;2022-08-03T00:36:55;18.90;99.90
11922;DHT22;6021;51.182;3.160;2022-08-03T00:39:23;18.90;99.90
11922;DHT22;6021;51.182;3.160;2022-08-03T00:41:51;18.90;99.90
11922;DHT22;6021;51.182;3.160;2022-08-03T00:44:21;18.90;99.90
11922;DHT22;6021;51.182;3.160;2022-08-03T00:46:49;18.90;99.90
11922;DHT22;6021;51.182;3.160;2022-08-03T00:49:19;18.90;99.90
11922;DHT22;6021;51.182;3.160;2022-08-03T00:51:47;18.90;99.90
11922;DHT22;6021;51.182;3.160;2022-08-03T00:54:16;18.80;99.90
11922;DHT22;6021;51.182;3.160;2022-08-03T00:56:45;18.90;99.90
11922;DHT22;6021;51.182;3.160;2022-08-03T00:59:14;18.90;99.90
11922;DHT22;6021;51.182;3.160;2022-08-03T01:01:43;18.80;99.90
11922;DHT22;6021;51.182;3.160;2022-08-03T01:04:11;18.80;99.90
11922;DHT22;6021;51.182;3.160;2022-08-03T01:12:21;18.70;99.90
11922;DHT22;6021;51.182;3.160;2022-08-03T01:14:54;18.70;99.90
11922;DHT22;6021;51.182;3.160;2022-08-03T01:17:36;18.70;99.90
11922;DHT22;6021;51.182;3.160;2022-08-03T01:20:09;18.70;99.90
11922;DHT22;6021;51.182;3.160;2022-08-03T01:23:02;18.70;99.90
11922;DHT22;6021;51.182;3.160;2022-08-03T01:26:05;18.70;99.90
11922;DHT22;6021;51.182;3.160;2022-08-03T01:29:05;18.70;99.90
11922;DHT22;6021;51.182;3.160;2022-08-03T01:31:38;18.60;99.90
11922;DHT22;6021;51.182;3.160;2022-08-03T01:34:08;18.60;99.90
11922;DHT22;6021;51.182;3.160;2022-08-03T01:36:39;18.60;99.90
11922;DHT22;6021;51.182;3.160;2022-08-03T01:39:08;18.60;99.90
11922;DHT22;6021;51.182;3.160;2022-08-03T01:41:55;18.50;99.90
11922;DHT22;6021;51.182;3.160;2022-08-03T01:44:29;18.50;99.90
11922;DHT22;6021;51.182;3.160;2022-08-03T01:47:02;18.50;99.90
11922;DHT22;6021;51.182;3.160;2022-08-03T01:49:34;18.50;99.90
11922;DHT22;6021;51.182;3.160;2022-08-03T01:52:03;18.40;99.90
11922;DHT22;6021;51.182;3.160;2022-08-03T01:54:39;18.40;99.90
11922;DHT22;6021;51.182;3.160;2022-08-03T01:57:04;18.40;99.90
11922;DHT22;6021;51.182;3.160;2022-08-03T01:59:34;18.40;99.90
11922;DHT22;6021;51.182;3.160;2022-08-03T02:02:22;18.30;99.90
11922;DHT22;6021;51.182;3.160;2022-08-03T02:04:53;18.30;99.90
11922;DHT22;6021;51.182;3.160;2022-08-03T02:07:23;18.40;99.90
11922;DHT22;6021;51.182;3.160;2022-08-03T02:09:53;18.20;99.90
11922;DHT22;6021;51.182;3.160;2022-08-03T02:12:24;18.40;99.90
11922;DHT22;6021;51.182;3.160;2022-08-03T02:14:54;18.30;99.90
11922;DHT22;6021;51.182;3.160;2022-08-03T02:17:26;18.30;99.90
11922;DHT22;6021;51.182;3.160;2022-08-03T02:19:56;18.30;99.90
11922;DHT22;6021;51.182;3.160;2022-08-03T02:22:26;18.20;99.90
11922;DHT22;6021;51.182;3.160;2022-08-03T02:24:56;18.30;99.90
11922;DHT22;6021;51.182;3.160;2022-08-03T02:27:26;18.20;99.90
11922;DHT22;6021;51.182;3.160;2022-08-03T02:30:01;18.20;99.90
11922;DHT22;6021;51.182;3.160;2022-08-03T02:32:33;18.10;99.90
11922;DHT22;6021;51.182;3.160;2022-08-03T02:35:03;18.10;99.90
11922;DHT22;6021;51.182;3.160;2022-08-03T02:37:36;18.00;99.90
11922;DHT22;6021;51.182;3.160;2022-08-03T02:40:05;18.00;99.90
11922;DHT22;6021;51.182;3.160;2022-08-03T02:42:35;17.90;99.90
11922;DHT22;6021;51.182;3.160;2022-08-03T02:45:06;17.90;99.90
11922;DHT22;6021;51.182;3.160;2022-08-03T02:47:39;17.90;99.90
11922;DHT22;6021;51.182;3.160;2022-08-03T02:50:11;18.00;99.90
11922;DHT22;6021;51.182;3.160;2022-08-03T02:52:41;17.90;99.90
11922;DHT22;6021;51.182;3.160;2022-08-03T02:55:11;18.00;99.90
11922;DHT22;6021;51.182;3.160;2022-08-03T02:57:42;18.00;99.90
11922;DHT22;6021;51.182;3.160;2022-08-03T03:00:12;17.90;99.90
11922;DHT22;6021;51.182;3.160;2022-08-03T03:02:41;18.00;99.90
11922;DHT22;6021;51.182;3.160;2022-08-03T03:05:11;18.00;99.90
11922;DHT22;6021;51.182;3.160;2022-08-03T03:07:40;17.90;99.90
11922;DHT22;6021;51.182;3.160;2022-08-03T03:10:10;17.90;99.90
11922;DHT22;6021;51.182;3.160;2022-08-03T03:12:40;17.90;99.90
11922;DHT22;6021;51.182;3.160;2022-08-03T03:15:09;17.90;99.90
11922;DHT22;6021;51.182;3.160;2022-08-03T03:17:38;17.80;99.90
11922;DHT22;6021;51.182;3.160;2022-08-03T03:20:08;17.80;99.90
11922;DHT22;6021;51.182;3.160;2022-08-03T03:22:38;17.90;99.90
11922;DHT22;6021;51.182;3.160;2022-08-03T03:25:07;17.90;99.90
11922;DHT22;6021;51.182;3.160;2022-08-03T03:27:36;17.90;99.90
11922;DHT22;6021;51.182;3.160;2022-08-03T03:30:05;17.90;99.90
11922;DHT22;6021;51.182;3.160;2022-08-03T03:32:34;17.90;99.90
11922;DHT22;6021;51.182;3.160;2022-08-03T03:35:04;17.90;99.90
11922;DHT22;6021;51.182;3.160;2022-08-03T03:37:32;18.00;99.90
11922;DHT22;6021;51.182;3.160;2022-08-03T03:40:01;18.10;99.90
11922;DHT22;6021;51.182;3.160;2022-08-03T03:42:30;18.30;99.90
11922;DHT22;6021;51.182;3.160;2022-08-03T03:45:02;18.30;99.90
11922;DHT22;6021;51.182;3.160;2022-08-03T03:47:29;18.30;99.90
11922;DHT22;6021;51.182;3.160;2022-08-03T03:49:57;18.30;99.90
11922;DHT22;6021;51.182;3.160;2022-08-03T03:52:26;18.20;99.90
11922;DHT22;6021;51.182;3.160;2022-08-03T03:54:54;18.10;99.90
11922;DHT22;6021;51.182;3.160;2022-08-03T03:57:23;18.10;99.90
11922;DHT22;6021;51.182;3.160;2022-08-03T03:59:52;17.90;99.90
11922;DHT22;6021;51.182;3.160;2022-08-03T04:02:21;17.90;99.90
11922;DHT22;6021;51.182;3.160;2022-08-03T04:04:50;17.90;99.90
11922;DHT22;6021;51.182;3.160;2022-08-03T04:07:47;18.00;99.90
11922;DHT22;6021;51.182;3.160;2022-08-03T04:10:30;17.90;99.90
11922;DHT22;6021;51.182;3.160;2022-08-03T04:13:19;17.70;99.90
11922;DHT22;6021;51.182;3.160;2022-08-03T04:15:49;17.70;99.90
11922;DHT22;6021;51.182;3.160;2022-08-03T04:18:19;17.70;99.90
11922;DHT22;6021;51.182;3.160;2022-08-03T04:20:49;17.80;99.90
11922;DHT22;6021;51.182;3.160;2022-08-03T04:23:21;17.80;99.90
11922;DHT22;6021;51.182;3.160;2022-08-03T04:25:51;17.70;99.90
11922;DHT22;6021;51.182;3.160;2022-08-03T04:28:21;17.80;99.90
11922;DHT22;6021;51.182;3.160;2022-08-03T04:30:50;17.80;99.90
11922;DHT22;6021;51.182;3.160;2022-08-03T04:33:20;17.80;99.90
11922;DHT22;6021;51.182;3.160;2022-08-03T04:35:52;17.90;99.90
11922;DHT22;6021;51.182;3.160;2022-08-03T04:38:23;18.00;99.90
11922;DHT22;6021;51.182;3.160;2022-08-03T04:40:53;17.90;99.90
11922;DHT22;6021;51.182;3.160;2022-08-03T04:43:24;17.80;99.90
11922;DHT22;6021;51.182;3.160;2022-08-03T04:45:54;17.80;99.90
11922;DHT22;6021;51.182;3.160;2022-08-03T04:48:23;17.80;99.90
11922;DHT22;6021;51.182;3.160;2022-08-03T04:50:53;17.80;99.90
11922;DHT22;6021;51.182;3.160;2022-08-03T04:53:21;17.80;99.90
11922;DHT22;6021;51.182;3.160;2022-08-03T04:55:50;17.70;99.90
11922;DHT22;6021;51.182;3.160;2022-08-03T04:58:18;17.80;99.90
11922;DHT22;6021;51.182;3.160;2022-08-03T05:00:46;17.80;99.90
11922;DHT22;6021;51.182;3.160;2022-08-03T05:03:16;17.80;99.90
11922;DHT22;6021;51.182;3.160;2022-08-03T05:05:44;18.00;99.90
11922;DHT22;6021;51.182;3.160;2022-08-03T05:08:13;17.90;99.90
11922;DHT22;6021;51.182;3.160;2022-08-03T05:10:41;18.00;99.90
11922;DHT22;6021;51.182;3.160;2022-08-03T05:13:10;17.90;99.90
11922;DHT22;6021;51.182;3.160;2022-08-03T05:15:40;18.10;99.90
11922;DHT22;6021;51.182;3.160;2022-08-03T05:18:11;17.90;99.90
11922;DHT22;6021;51.182;3.160;2022-08-03T05:20:40;18.00;99.90
11922;DHT22;6021;51.182;3.160;2022-08-03T05:23:08;18.00;99.90
11922;DHT22;6021;51.182;3.160;2022-08-03T05:25:36;17.90;99.90
11922;DHT22;6021;51.182;3.160;2022-08-03T05:28:05;18.10;99.90
11922;DHT22;6021;51.182;3.160;2022-08-03T05:30:33;18.30;99.90
11922;DHT22;6021;51.182;3.160;2022-08-03T05:33:02;18.20;99.90
11922;DHT22;6021;51.182;3.160;2022-08-03T05:35:31;18.10;99.90
11922;DHT22;6021;51.182;3.160;2022-08-03T05:38:02;18.20;99.90
11922;DHT22;6021;51.182;3.160;2022-08-03T05:40:31;18.10;99.90
11922;DHT22;6021;51.182;3.160;2022-08-03T05:42:59;18.30;99.90
11922;DHT22;6021;51.182;3.160;2022-08-03T05:45:28;18.40;99.90
11922;DHT22;6021;51.182;3.160;2022-08-03T05:47:56;18.40;99.90
11922;DHT22;6021;51.182;3.160;2022-08-03T05:50:25;18.40;99.90
11922;DHT22;6021;51.182;3.160;2022-08-03T05:52:55;18.50;99.90
11922;DHT22;6021;51.182;3.160;2022-08-03T05:55:26;18.40;99.90
11922;DHT22;6021;51.182;3.160;2022-08-03T05:57:54;18.50;99.90
11922;DHT22;6021;51.182;3.160;2022-08-03T06:00:23;18.60;99.90
11922;DHT22;6021;51.182;3.160;2022-08-03T06:02:51;18.70;99.90
11922;DHT22;6021;51.182;3.160;2022-08-03T06:05:19;18.90;99.90
11922;DHT22;6021;51.182;3.160;2022-08-03T06:07:48;19.00;99.90
11922;DHT22;6021;51.182;3.160;2022-08-03T06:10:16;19.00;99.90
11922;DHT22;6021;51.182;3.160;2022-08-03T06:12:45;19.00;99.90
11922;DHT22;6021;51.182;3.160;2022-08-03T06:15:15;19.20;99.90
11922;DHT22;6021;51.182;3.160;2022-08-03T06:17:48;19.30;99.90
11922;DHT22;6021;51.182;3.160;2022-08-03T06:20:18;19.30;99.90
11922;DHT22;6021;51.182;3.160;2022-08-03T06:22:48;19.50;99.90
11922;DHT22;6021;51.182;3.160;2022-08-03T06:25:17;19.60;99.90
11922;DHT22;6021;51.182;3.160;2022-08-03T06:27:45;19.70;99.90
11922;DHT22;6021;51.182;3.160;2022-08-03T06:30:14;19.80;99.90
11922;DHT22;6021;51.182;3.160;2022-08-03T06:32:43;19.80;99.90
11922;DHT22;6021;51.182;3.160;2022-08-03T06:35:12;19.80;99.90
11922;DHT22;6021;51.182;3.160;2022-08-03T06:37:44;19.80;99.90
11922;DHT22;6021;51.182;3.160;2022-08-03T06:40:14;19.70;99.90
11922;DHT22;6021;51.182;3.160;2022-08-03T06:42:42;19.80;99.90
11922;DHT22;6021;51.182;3.160;2022-08-03T06:45:11;19.60;99.90
11922;DHT22;6021;51.182;3.160;2022-08-03T06:47:40;19.80;99.90
11922;DHT22;6021;51.182;3.160;2022-08-03T06:50:09;19.70;99.90
11922;DHT22;6021;51.182;3.160;2022-08-03T06:52:37;19.60;99.90
11922;DHT22;6021;51.182;3.160;2022-08-03T06:55:06;19.70;99.90
11922;DHT22;6021;51.182;3.160;2022-08-03T06:57:35;19.70;99.90
11922;DHT22;6021;51.182;3.160;2022-08-03T07:00:03;19.80;99.90
11922;DHT22;6021;51.182;3.160;2022-08-03T07:02:32;19.90;99.90
11922;DHT22;6021;51.182;3.160;2022-08-03T07:05:01;20.00;99.90
11922;DHT22;6021;51.182;3.160;2022-08-03T07:07:30;20.00;99.90
11922;DHT22;6021;51.182;3.160;2022-08-03T07:09:58;20.00;99.90
11922;DHT22;6021;51.182;3.160;2022-08-03T07:12:28;20.00;99.90
11922;DHT22;6021;51.182;3.160;2022-08-03T07:14:57;20.10;99.90
11922;DHT22;6021;51.182;3.160;2022-08-03T07:17:26;20.20;99.90
11922;DHT22;6021;51.182;3.160;2022-08-03T07:19:55;20.30;99.90
11922;DHT22;6021;51.182;3.160;2022-08-03T07:22:23;20.40;99.90
11922;DHT22;6021;51.182;3.160;2022-08-03T07:24:54;20.50;99.90
11922;DHT22;6021;51.182;3.160;2022-08-03T07:27:23;20.40;99.90
11922;DHT22;6021;51.182;3.160;2022-08-03T07:29:53;20.40;99.90
11922;DHT22;6021;51.182;3.160;2022-08-03T07:32:21;20.60;99.90
11922;DHT22;6021;51.182;3.160;2022-08-03T07:34:50;20.60;99.90
11922;DHT22;6021;51.182;3.160;2022-08-03T07:37:18;20.70;99.90
11922;DHT22;6021;51.182;3.160;2022-08-03T07:39:47;20.70;99.90
11922;DHT22;6021;51.182;3.160;2022-08-03T07:42:15;20.70;99.90
11922;DHT22;6021;51.182;3.160;2022-08-03T07:44:44;20.80;99.90
11922;DHT22;6021;51.182;3.160;2022-08-03T07:47:16;21.00;99.90
11922;DHT22;6021;51.182;3.160;2022-08-03T07:49:42;21.10;99.90
11922;DHT22;6021;51.182;3.160;2022-08-03T07:52:10;21.10;99.90
11922;DHT22;6021;51.182;3.160;2022-08-03T07:54:57;21.10;99.90
11922;DHT22;6021;51.182;3.160;2022-08-03T07:57:25;21.20;99.90
11922;DHT22;6021;51.182;3.160;2022-08-03T07:59:53;21.20;99.90
11922;DHT22;6021;51.182;3.160;2022-08-03T08:02:22;21.20;99.90
11922;DHT22;6021;51.182;3.160;2022-08-03T08:04:50;21.10;99.90
11922;DHT22;6021;51.182;3.160;2022-08-03T08:07:18;21.20;99.90
11922;DHT22;6021;51.182;3.160;2022-08-03T08:09:46;21.40;99.90
11922;DHT22;6021;51.182;3.160;2022-08-03T08:12:15;21.50;99.90
11922;DHT22;6021;51.182;3.160;2022-08-03T08:14:43;21.70;99.90
11922;DHT22;6021;51.182;3.160;2022-08-03T08:17:14;21.80;99.90
11922;DHT22;6021;51.182;3.160;2022-08-03T08:19:42;21.70;99.90
11922;DHT22;6021;51.182;3.160;2022-08-03T08:22:11;21.90;99.90
11922;DHT22;6021;51.182;3.160;2022-08-03T08:24:39;22.00;99.90
11922;DHT22;6021;51.182;3.160;2022-08-03T08:27:09;22.00;99.90
11922;DHT22;6021;51.182;3.160;2022-08-03T08:29:38;22.10;99.90
11922;DHT22;6021;51.182;3.160;2022-08-03T08:32:06;22.20;99.90
11922;DHT22;6021;51.182;3.160;2022-08-03T08:34:36;22.20;99.90
11922;DHT22;6021;51.182;3.160;2022-08-03T08:37:05;22.30;99.90
11922;DHT22;6021;51.182;3.160;2022-08-03T08:39:33;22.40;99.90
11922;DHT22;6021;51.182;3.160;2022-08-03T08:42:02;22.40;97.40
11922;DHT22;6021;51.182;3.160;2022-08-03T08:44:30;22.60;95.10
11922;DHT22;6021;51.182;3.160;2022-08-03T08:47:00;22.60;94.50
11922;DHT22;6021;51.182;3.160;2022-08-03T08:49:31;22.50;97.10
11922;DHT22;6021;51.182;3.160;2022-08-03T08:52:02;22.70;96.60
11922;DHT22;6021;51.182;3.160;2022-08-03T08:54:32;22.80;93.00
11922;DHT22;6021;51.182;3.160;2022-08-03T08:57:03;22.90;92.60
11922;DHT22;6021;51.182;3.160;2022-08-03T08:59:33;22.90;91.10
11922;DHT22;6021;51.182;3.160;2022-08-03T09:02:01;22.90;90.20
11922;DHT22;6021;51.182;3.160;2022-08-03T09:04:30;22.90;85.70
11922;DHT22;6021;51.182;3.160;2022-08-03T09:07:00;23.00;88.60
11922;DHT22;6021;51.182;3.160;2022-08-03T09:09:30;23.10;78.10
11922;DHT22;6021;51.182;3.160;2022-08-03T09:11:58;23.30;68.00
11922;DHT22;6021;51.182;3.160;2022-08-03T09:14:28;23.40;57.90
11922;DHT22;6021;51.182;3.160;2022-08-03T09:16:59;23.30;56.70
11922;DHT22;6021;51.182;3.160;2022-08-03T09:19:32;23.40;53.50
11922;DHT22;6021;51.182;3.160;2022-08-03T09:25:01;23.40;39.50
11922;DHT22;6021;51.182;3.160;2022-08-03T09:27:43;23.40;38.60
11922;DHT22;6021;51.182;3.160;2022-08-03T09:30:13;23.40;36.50
11922;DHT22;6021;51.182;3.160;2022-08-03T09:32:42;23.60;32.10
11922;DHT22;6021;51.182;3.160;2022-08-03T09:35:13;23.70;29.00
11922;DHT22;6021;51.182;3.160;2022-08-03T09:37:41;23.60;30.60
11922;DHT22;6021;51.182;3.160;2022-08-03T09:40:10;23.90;24.20
11922;DHT22;6021;51.182;3.160;2022-08-03T09:42:54;23.80;22.80
11922;DHT22;6021;51.182;3.160;2022-08-03T09:45:24;23.90;21.30
11922;DHT22;6021;51.182;3.160;2022-08-03T09:47:41;23.90;21.20
11922;DHT22;6021;51.182;3.160;2022-08-03T09:50:09;24.00;17.70
11922;DHT22;6021;51.182;3.160;2022-08-03T09:52:40;23.90;18.40
11922;DHT22;6021;51.182;3.160;2022-08-03T09:55:11;23.90;18.60
11922;DHT22;6021;51.182;3.160;2022-08-03T09:57:40;24.00;16.80
11922;DHT22;6021;51.182;3.160;2022-08-03T10:00:16;24.20;12.40
11922;DHT22;6021;51.182;3.160;2022-08-03T10:02:44;24.30;9.80
11922;DHT22;6021;51.182;3.160;2022-08-03T10:05:14;24.40;9.50
11922;DHT22;6021;51.182;3.160;2022-08-03T10:07:44;24.40;9.80
11922;DHT22;6021;51.182;3.160;2022-08-03T10:10:14;24.40;10.40
11922;DHT22;6021;51.182;3.160;2022-08-03T10:12:43;24.50;9.70
11922;DHT22;6021;51.182;3.160;2022-08-03T10:15:13;24.60;7.30
11922;DHT22;6021;51.182;3.160;2022-08-03T10:17:42;24.60;4.70
11922;DHT22;6021;51.182;3.160;2022-08-03T10:20:11;24.80;1.00
11922;DHT22;6021;51.182;3.160;2022-08-03T10:22:40;24.80;1.00
11922;DHT22;6021;51.182;3.160;2022-08-03T10:25:11;24.70;2.00
11922;DHT22;6021;51.182;3.160;2022-08-03T10:27:42;25.00;1.00
11922;DHT22;6021;51.182;3.160;2022-08-03T10:30:12;25.10;1.00
11922;DHT22;6021;51.182;3.160;2022-08-03T10:32:43;25.00;1.00
11922;DHT22;6021;51.182;3.160;2022-08-03T10:35:15;25.10;1.00
11922;DHT22;6021;51.182;3.160;2022-08-03T10:38:08;25.10;1.00
11922;DHT22;6021;51.182;3.160;2022-08-03T10:40:15;25.30;1.00
11922;DHT22;6021;51.182;3.160;2022-08-03T10:42:50;25.40;1.00
11922;DHT22;6021;51.182;3.160;2022-08-03T10:45:20;25.40;1.00
11922;DHT22;6021;51.182;3.160;2022-08-03T10:47:50;25.40;1.00
11922;DHT22;6021;51.182;3.160;2022-08-03T10:50:24;25.40;1.00
11922;DHT22;6021;51.182;3.160;2022-08-03T10:55:39;25.60;1.00
11922;DHT22;6021;51.182;3.160;2022-08-03T11:01:10;25.60;1.00
11922;DHT22;6021;51.182;3.160;2022-08-03T11:06:26;26.00;1.00
11922;DHT22;6021;51.182;3.160;2022-08-03T11:11:42;25.90;1.00
11922;DHT22;6021;51.182;3.160;2022-08-03T11:14:16;25.90;1.00
11922;DHT22;6021;51.182;3.160;2022-08-03T11:16:47;26.00;1.00
11922;DHT22;6021;51.182;3.160;2022-08-03T11:19:20;26.00;1.00
11922;DHT22;6021;51.182;3.160;2022-08-03T11:21:54;26.00;1.00
11922;DHT22;6021;51.182;3.160;2022-08-03T11:27:33;26.20;1.00
11922;DHT22;6021;51.182;3.160;2022-08-03T11:30:06;26.20;1.00
11922;DHT22;6021;51.182;3.160;2022-08-03T11:35:17;26.40;1.00
11922;DHT22;6021;51.182;3.160;2022-08-03T11:40:36;26.70;1.00
11922;DHT22;6021;51.182;3.160;2022-08-03T11:43:07;26.70;1.00
11922;DHT22;6021;51.182;3.160;2022-08-03T11:45:46;26.70;1.00
11922;DHT22;6021;51.182;3.160;2022-08-03T11:48:15;26.80;1.00
11922;DHT22;6021;51.182;3.160;2022-08-03T11:50:43;26.90;1.00
11922;DHT22;6021;51.182;3.160;2022-08-03T11:53:17;26.90;1.00
11922;DHT22;6021;51.182;3.160;2022-08-03T11:55:46;26.80;1.00
11922;DHT22;6021;51.182;3.160;2022-08-03T11:58:22;26.80;1.00
11922;DHT22;6021;51.182;3.160;2022-08-03T12:00:50;26.80;1.00
11922;DHT22;6021;51.182;3.160;2022-08-03T12:03:20;26.80;1.00
11922;DHT22;6021;51.182;3.160;2022-08-03T12:05:52;27.00;1.00
11922;DHT22;6021;51.182;3.160;2022-08-03T12:11:17;27.20;1.00
11922;DHT22;6021;51.182;3.160;2022-08-03T12:13:48;27.20;1.00
11922;DHT22;6021;51.182;3.160;2022-08-03T12:16:20;27.20;1.00
11922;DHT22;6021;51.182;3.160;2022-08-03T12:19:04;27.30;1.00
11922;DHT22;6021;51.182;3.160;2022-08-03T12:21:28;27.30;1.00
11922;DHT22;6021;51.182;3.160;2022-08-03T12:24:02;27.30;1.00
11922;DHT22;6021;51.182;3.160;2022-08-03T12:26:45;27.30;1.00
11922;DHT22;6021;51.182;3.160;2022-08-03T12:29:21;27.40;1.00
11922;DHT22;6021;51.182;3.160;2022-08-03T12:31:51;27.40;1.00
11922;DHT22;6021;51.182;3.160;2022-08-03T12:34:19;27.50;1.00
11922;DHT22;6021;51.182;3.160;2022-08-03T12:36:53;27.70;1.00
11922;DHT22;6021;51.182;3.160;2022-08-03T12:39:24;27.80;1.00
11922;DHT22;6021;51.182;3.160;2022-08-03T12:41:54;27.70;1.00
11922;DHT22;6021;51.182;3.160;2022-08-03T12:44:34;27.70;1.00
11922;DHT22;6021;51.182;3.160;2022-08-03T12:47:07;27.80;1.00
11922;DHT22;6021;51.182;3.160;2022-08-03T12:49:49;27.90;1.00
11922;DHT22;6021;51.182;3.160;2022-08-03T12:52:20;27.90;1.00
11922;DHT22;6021;51.182;3.160;2022-08-03T12:54:56;28.10;1.00
11922;DHT22;6021;51.182;3.160;2022-08-03T12:57:25;28.10;1.00
11922;DHT22;6021;51.182;3.160;2022-08-03T12:59:58;28.00;1.00
11922;DHT22;6021;51.182;3.160;2022-08-03T13:02:26;28.00;1.00
11922;DHT22;6021;51.182;3.160;2022-08-03T13:04:55;28.00;1.00
11922;DHT22;6021;51.182;3.160;2022-08-03T13:07:25;28.10;1.00
11922;DHT22;6021;51.182;3.160;2022-08-03T13:09:54;28.00;1.00
11922;DHT22;6021;51.182;3.160;2022-08-03T13:12:26;28.10;1.00
11922;DHT22;6021;51.182;3.160;2022-08-03T13:14:58;28.10;1.00
11922;DHT22;6021;51.182;3.160;2022-08-03T13:17:27;28.40;1.00
11922;DHT22;6021;51.182;3.160;2022-08-03T13:19:57;28.30;1.00
11922;DHT22;6021;51.182;3.160;2022-08-03T13:22:26;28.30;1.00
11922;DHT22;6021;51.182;3.160;2022-08-03T13:25:00;28.40;1.00
11922;DHT22;6021;51.182;3.160;2022-08-03T13:27:29;28.50;1.00
11922;DHT22;6021;51.182;3.160;2022-08-03T13:29:58;28.40;1.00
11922;DHT22;6021;51.182;3.160;2022-08-03T13:32:26;28.40;1.00
11922;DHT22;6021;51.182;3.160;2022-08-03T13:34:55;28.40;1.00
11922;DHT22;6021;51.182;3.160;2022-08-03T13:37:23;28.40;1.00
11922;DHT22;6021;51.182;3.160;2022-08-03T13:39:51;28.40;1.00
11922;DHT22;6021;51.182;3.160;2022-08-03T13:42:21;28.40;1.00
11922;DHT22;6021;51.182;3.160;2022-08-03T13:44:49;28.60;1.00
11922;DHT22;6021;51.182;3.160;2022-08-03T13:47:17;28.60;1.00
11922;DHT22;6021;51.182;3.160;2022-08-03T13:49:46;28.70;1.00
11922;DHT22;6021;51.182;3.160;2022-08-03T13:52:14;28.70;1.00
11922;DHT22;6021;51.182;3.160;2022-08-03T13:54:42;28.60;1.00
11922;DHT22;6021;51.182;3.160;2022-08-03T13:57:11;28.80;1.00
11922;DHT22;6021;51.182;3.160;2022-08-03T13:59:39;28.70;1.00
11922;DHT22;6021;51.182;3.160;2022-08-03T14:02:07;28.70;1.00
11922;DHT22;6021;51.182;3.160;2022-08-03T14:04:36;28.80;1.00
11922;DHT22;6021;51.182;3.160;2022-08-03T14:07:04;28.70;1.00
11922;DHT22;6021;51.182;3.160;2022-08-03T14:09:32;28.80;1.00
11922;DHT22;6021;51.182;3.160;2022-08-03T14:12:01;28.60;1.00
11922;DHT22;6021;51.182;3.160;2022-08-03T14:14:29;28.60;1.00
11922;DHT22;6021;51.182;3.160;2022-08-03T14:16:57;28.60;1.00
11922;DHT22;6021;51.182;3.160;2022-08-03T14:19:26;28.60;1.00
11922;DHT22;6021;51.182;3.160;2022-08-03T14:21:54;28.60;1.00
11922;DHT22;6021;51.182;3.160;2022-08-03T14:24:22;28.50;1.00
11922;DHT22;6021;51.182;3.160;2022-08-03T14:26:51;28.60;1.00
11922;DHT22;6021;51.182;3.160;2022-08-03T14:29:19;28.70;1.00
11922;DHT22;6021;51.182;3.160;2022-08-03T14:31:47;28.80;1.00
11922;DHT22;6021;51.182;3.160;2022-08-03T14:34:16;28.60;1.00
11922;DHT22;6021;51.182;3.160;2022-08-03T14:36:44;28.70;1.00
11922;DHT22;6021;51.182;3.160;2022-08-03T14:39:13;28.60;1.00
11922;DHT22;6021;51.182;3.160;2022-08-03T14:41:42;28.40;1.00
11922;DHT22;6021;51.182;3.160;2022-08-03T14:44:10;28.30;1.00
11922;DHT22;6021;51.182;3.160;2022-08-03T14:46:38;28.20;1.00
11922;DHT22;6021;51.182;3.160;2022-08-03T14:49:06;28.10;1.00
11922;DHT22;6021;51.182;3.160;2022-08-03T14:51:35;28.10;1.00
11922;DHT22;6021;51.182;3.160;2022-08-03T14:54:03;28.00;1.00
11922;DHT22;6021;51.182;3.160;2022-08-03T14:56:31;27.90;1.00
11922;DHT22;6021;51.182;3.160;2022-08-03T14:59:00;27.80;1.00
11922;DHT22;6021;51.182;3.160;2022-08-03T15:01:29;27.60;1.00
11922;DHT22;6021;51.182;3.160;2022-08-03T15:03:57;27.60;1.00
11922;DHT22;6021;51.182;3.160;2022-08-03T15:06:26;27.50;1.00
11922;DHT22;6021;51.182;3.160;2022-08-03T15:08:55;27.50;1.00
11922;DHT22;6021;51.182;3.160;2022-08-03T15:11:23;27.40;1.00
11922;DHT22;6021;51.182;3.160;2022-08-03T15:13:52;27.20;1.00
11922;DHT22;6021;51.182;3.160;2022-08-03T15:16:21;27.20;1.00
11922;DHT22;6021;51.182;3.160;2022-08-03T15:18:49;27.20;1.00
11922;DHT22;6021;51.182;3.160;2022-08-03T15:21:18;27.40;1.00
11922;DHT22;6021;51.182;3.160;2022-08-03T15:23:46;27.60;1.00
11922;DHT22;6021;51.182;3.160;2022-08-03T15:26:14;27.50;1.00
11922;DHT22;6021;51.182;3.160;2022-08-03T15:28:43;27.40;1.00
11922;DHT22;6021;51.182;3.160;2022-08-03T15:31:11;27.40;1.00
11922;DHT22;6021;51.182;3.160;2022-08-03T15:33:39;27.40;1.00
11922;DHT22;6021;51.182;3.160;2022-08-03T15:36:08;27.40;1.00
11922;DHT22;6021;51.182;3.160;2022-08-03T15:38:36;27.40;1.00
11922;DHT22;6021;51.182;3.160;2022-08-03T15:41:04;27.30;1.00
11922;DHT22;6021;51.182;3.160;2022-08-03T15:43:33;27.30;1.00
11922;DHT22;6021;51.182;3.160;2022-08-03T15:46:01;27.50;1.00
11922;DHT22;6021;51.182;3.160;2022-08-03T15:48:29;27.30;1.00
11922;DHT22;6021;51.182;3.160;2022-08-03T15:50:58;27.30;1.00
11922;DHT22;6021;51.182;3.160;2022-08-03T15:53:26;27.20;1.00
11922;DHT22;6021;51.182;3.160;2022-08-03T15:55:55;27.20;1.00
11922;DHT22;6021;51.182;3.160;2022-08-03T15:58:23;27.10;1.00
11922;DHT22;6021;51.182;3.160;2022-08-03T16:00:53;27.10;1.00
11922;DHT22;6021;51.182;3.160;2022-08-03T16:03:23;27.10;1.00
11922;DHT22;6021;51.182;3.160;2022-08-03T16:05:54;27.00;1.00
11922;DHT22;6021;51.182;3.160;2022-08-03T16:08:22;26.90;1.00
11922;DHT22;6021;51.182;3.160;2022-08-03T16:10:51;27.00;1.00
11922;DHT22;6021;51.182;3.160;2022-08-03T16:13:19;26.90;1.00
11922;DHT22;6021;51.182;3.160;2022-08-03T16:15:47;27.00;1.00
11922;DHT22;6021;51.182;3.160;2022-08-03T16:18:16;26.80;1.00
11922;DHT22;6021;51.182;3.160;2022-08-03T16:20:45;26.80;1.00
11922;DHT22;6021;51.182;3.160;2022-08-03T16:23:15;26.70;1.00
11922;DHT22;6021;51.182;3.160;2022-08-03T16:25:45;26.70;1.00
11922;DHT22;6021;51.182;3.160;2022-08-03T16:28:14;26.70;1.00
11922;DHT22;6021;51.182;3.160;2022-08-03T16:30:44;26.80;1.00
11922;DHT22;6021;51.182;3.160;2022-08-03T16:33:14;26.70;1.00
11922;DHT22;6021;51.182;3.160;2022-08-03T16:35:42;26.70;1.00
11922;DHT22;6021;51.182;3.160;2022-08-03T16:38:11;26.70;1.00
11922;DHT22;6021;51.182;3.160;2022-08-03T16:40:39;26.70;1.00
11922;DHT22;6021;51.182;3.160;2022-08-03T16:43:14;26.70;1.00